57.9°F
Current conditions from King Hill
Updated every 5 minutes
 
  Thursday July 31, 2014

Station Historical Data
Daily Summary for January 7, 2012 Units:  English    Metric   Both
« Previous Day
Next Day »
Daily Weekly Monthly Yearly Custom
  High: Low: Average:
Temperature: 40.2 °F 31.3 °F 35.6 °F
Dew Point: 33.1 °F 25.8 °F 29.7 °F
Humidity: 93% 68% 79%
Wind Speed: 8.0mph 1.0mph 3.5mph
Wind Gust: 17.0mph - -
Wind- - SW
Pressure: 29.85 in 29.61 in -
Precipitation: 0.00 in    
Historical Graphs
 
 
Tabular Data for January 7, 2012
Time Temperature Dew Point Pressure Wind Wind Speed Wind Gust Humidity Daily Rainfall
00:04 33.2 °F 25.8 °F 29.66 in SSW 3.0 mph 6.0 mph 74% 0.00 in
00:09 33.9 °F 26.2 °F 29.66 in SSW 4.0 mph 7.0 mph 73% 0.00 in
00:14 34.5 °F 26.4 °F 29.66 in SW 4.0 mph 9.0 mph 72% 0.00 in
00:19 35.2 °F 26.7 °F 29.66 in SSW 4.0 mph 9.0 mph 71% 0.00 in
00:24 35.5 °F 26.7 °F 29.66 in SSW 4.0 mph 7.0 mph 70% 0.00 in
00:29 35.8 °F 27.0 °F 29.66 in SSW 4.0 mph 7.0 mph 70% 0.00 in
00:34 35.9 °F 26.7 °F 29.66 in SW 5.0 mph 7.0 mph 69% 0.00 in
00:39 36.0 °F 26.8 °F 29.66 in SSW 5.0 mph 7.0 mph 69% 0.00 in
00:44 36.0 °F 26.8 °F 29.66 in SSW 4.0 mph 9.0 mph 69% 0.00 in
00:49 35.9 °F 26.7 °F 29.66 in SSW 4.0 mph 9.0 mph 69% 0.00 in
00:54 35.9 °F 26.7 °F 29.66 in SSW 4.0 mph 8.0 mph 69% 0.00 in
00:59 36.1 °F 26.9 °F 29.66 in SSW 5.0 mph 11.0 mph 69% 0.00 in
01:04 36.2 °F 26.7 °F 29.66 in SSW 5.0 mph 11.0 mph 68% 0.00 in
01:09 35.9 °F 26.4 °F 29.66 in SSW 4.0 mph 8.0 mph 68% 0.00 in
01:14 35.4 °F 26.2 °F 29.67 in SSW 4.0 mph 7.0 mph 69% 0.00 in
01:19 35.3 °F 26.2 °F 29.66 in SSW 4.0 mph 7.0 mph 69% 0.00 in
01:24 35.1 °F 26.3 °F 29.67 in SSW 5.0 mph 7.0 mph 70% 0.00 in
01:29 34.9 °F 26.1 °F 29.67 in SSW 4.0 mph 7.0 mph 70% 0.00 in
01:34 34.7 °F 26.3 °F 29.66 in SSW 4.0 mph 7.0 mph 71% 0.00 in
01:39 34.8 °F 26.4 °F 29.66 in SSW 4.0 mph 7.0 mph 71% 0.00 in
01:44 34.9 °F 26.5 °F 29.66 in SSW 4.0 mph 7.0 mph 71% 0.00 in
01:49 34.7 °F 26.3 °F 29.67 in SSW 4.0 mph 7.0 mph 71% 0.00 in
01:54 34.6 °F 26.2 °F 29.67 in SSW 4.0 mph 6.0 mph 71% 0.00 in
01:59 35.0 °F 26.6 °F 29.67 in SSW 5.0 mph 7.0 mph 71% 0.00 in
02:04 35.1 °F 26.6 °F 29.67 in SSW 4.0 mph 7.0 mph 71% 0.00 in
02:09 35.0 °F 26.6 °F 29.67 in SSW 4.0 mph 8.0 mph 71% 0.00 in
02:14 34.7 °F 26.3 °F 29.67 in SSW 4.0 mph 8.0 mph 71% 0.00 in
02:19 34.4 °F 26.0 °F 29.67 in SSW 3.0 mph 7.0 mph 71% 0.00 in
02:24 34.4 °F 26.3 °F 29.67 in SSW 4.0 mph 7.0 mph 72% 0.00 in
02:29 34.3 °F 26.2 °F 29.67 in SSW 4.0 mph 7.0 mph 72% 0.00 in
02:34 34.1 °F 26.4 °F 29.67 in SSW 4.0 mph 6.0 mph 73% 0.00 in
02:39 34.4 °F 26.6 °F 29.67 in SSW 4.0 mph 6.0 mph 73% 0.00 in
02:44 34.6 °F 26.8 °F 29.67 in SSW 4.0 mph 6.0 mph 73% 0.00 in
02:49 34.8 °F 27.0 °F 29.66 in SSW 4.0 mph 6.0 mph 73% 0.00 in
02:54 35.4 °F 27.3 °F 29.66 in SSW 4.0 mph 8.0 mph 72% 0.00 in
02:59 35.7 °F 27.6 °F 29.66 in SSW 4.0 mph 8.0 mph 72% 0.00 in
03:04 35.7 °F 27.2 °F 29.66 in SSW 4.0 mph 7.0 mph 71% 0.00 in
03:09 35.9 °F 27.4 °F 29.66 in SW 4.0 mph 7.0 mph 71% 0.00 in
03:14 35.9 °F 27.8 °F 29.66 in SSW 4.0 mph 7.0 mph 72% 0.00 in
03:19 35.7 °F 27.6 °F 29.66 in SW 4.0 mph 7.0 mph 72% 0.00 in
03:24 35.8 °F 27.7 °F 29.65 in SSW 4.0 mph 8.0 mph 72% 0.00 in
03:29 36.2 °F 28.0 °F 29.65 in SSW 4.0 mph 8.0 mph 72% 0.00 in
03:34 36.4 °F 28.2 °F 29.65 in SSW 4.0 mph 7.0 mph 72% 0.00 in
03:39 36.5 °F 28.3 °F 29.65 in SSW 4.0 mph 7.0 mph 72% 0.00 in
03:49 36.7 °F 28.2 °F 29.65 in SSW 4.0 mph 7.0 mph 71% 0.00 in
03:54 36.8 °F 28.3 °F 29.64 in SSW 4.0 mph 7.0 mph 71% 0.00 in
03:59 37.0 °F 28.5 °F 29.65 in SSW 4.0 mph 6.0 mph 71% 0.00 in
04:04 36.8 °F 28.3 °F 29.65 in SSW 3.0 mph 6.0 mph 71% 0.00 in
04:09 36.9 °F 28.4 °F 29.65 in SSW 3.0 mph 6.0 mph 71% 0.00 in
04:14 36.9 °F 28.4 °F 29.65 in SSW 2.0 mph 5.0 mph 71% 0.00 in
04:19 36.9 °F 28.4 °F 29.65 in SSW 2.0 mph 5.0 mph 71% 0.00 in
04:24 36.9 °F 28.7 °F 29.65 in SSW 3.0 mph 6.0 mph 72% 0.00 in
04:29 36.9 °F 28.7 °F 29.65 in SSW 2.0 mph 6.0 mph 72% 0.00 in
04:34 37.0 °F 28.8 °F 29.64 in SSW 1.0 mph 5.0 mph 72% 0.00 in
04:39 37.1 °F 28.6 °F 29.65 in SSW 2.0 mph 4.0 mph 71% 0.00 in
04:44 37.2 °F 28.7 °F 29.64 in SSW 2.0 mph 4.0 mph 71% 0.00 in
04:49 37.3 °F 28.8 °F 29.64 in SSW 2.0 mph 4.0 mph 71% 0.00 in
04:54 37.3 °F 28.8 °F 29.64 in SSW 2.0 mph 5.0 mph 71% 0.00 in
04:59 37.2 °F 28.7 °F 29.64 in SSW 2.0 mph 5.0 mph 71% 0.00 in
05:04 37.0 °F 28.8 °F 29.64 in SSW 2.0 mph 4.0 mph 72% 0.00 in
05:09 36.8 °F 28.6 °F 29.64 in Calm   4.0 mph 72% 0.00 in
05:14 36.4 °F 28.6 °F 29.65 in Calm   2.0 mph 73% 0.00 in
05:19 35.8 °F 28.3 °F 29.64 in Calm   1.0 mph 74% 0.00 in
05:24 35.4 °F 28.9 °F 29.64 in Calm   1.0 mph 77% 0.00 in
05:29 35.0 °F 28.8 °F 29.65 in Calm     78% 0.00 in
05:34 34.7 °F 28.5 °F 29.65 in Calm     78% 0.00 in
05:39 34.4 °F 28.3 °F 29.65 in Calm     78% 0.00 in
05:44 34.2 °F 28.4 °F 29.65 in Calm     79% 0.00 in
05:49 34.0 °F 28.2 °F 29.65 in Calm   1.0 mph 79% 0.00 in
05:54 33.8 °F 28.0 °F 29.65 in SSW 1.0 mph 2.0 mph 79% 0.00 in
05:59 33.6 °F 27.8 °F 29.65 in SSW 1.0 mph 2.0 mph 79% 0.00 in
06:04 33.4 °F 27.6 °F 29.65 in Calm   2.0 mph 79% 0.00 in
06:09 33.2 °F 27.7 °F 29.66 in SSW 2.0 mph 3.0 mph 80% 0.00 in
06:14 33.3 °F 27.8 °F 29.66 in SSW 2.0 mph 3.0 mph 80% 0.00 in
06:19 33.4 °F 27.9 °F 29.66 in SSW 2.0 mph 3.0 mph 80% 0.00 in
06:24 33.5 °F 27.7 °F 29.65 in SSW 1.0 mph 3.0 mph 79% 0.00 in
06:29 33.7 °F 27.9 °F 29.66 in SSW 2.0 mph 4.0 mph 79% 0.00 in
06:39 34.3 °F 28.2 °F 29.66 in SSW 1.0 mph 3.0 mph 78% 0.00 in
06:44 34.4 °F 27.9 °F 29.66 in SSW 1.0 mph 3.0 mph 77% 0.00 in
06:49 34.4 °F 27.9 °F 29.66 in SSW 1.0 mph 3.0 mph 77% 0.00 in
06:54 34.4 °F 28.3 °F 29.66 in Calm   3.0 mph 78% 0.00 in
06:59 34.4 °F 28.3 °F 29.65 in SSW 1.0 mph 2.0 mph 78% 0.00 in
07:04 34.1 °F 28.3 °F 29.65 in Calm   2.0 mph 79% 0.00 in
07:09 33.8 °F 29.5 °F 29.65 in Calm   2.0 mph 84% 0.00 in
07:14 33.2 °F 27.1 °F 29.65 in Calm     78% 0.00 in
07:19 32.5 °F 26.4 °F 29.65 in Calm     78% 0.00 in
07:24 31.9 °F 26.4 °F 29.66 in Calm     80% 0.00 in
07:29 31.7 °F 26.2 °F 29.66 in Calm     80% 0.00 in
07:34 31.7 °F 26.5 °F 29.66 in Calm     81% 0.00 in
07:39 31.5 °F 26.3 °F 29.67 in Calm     81% 0.00 in
07:44 31.4 °F 26.2 °F 29.67 in Calm     81% 0.00 in
07:49 31.3 °F 26.4 °F 29.67 in Calm     82% 0.00 in
07:54 31.5 °F 26.9 °F 29.66 in Calm     83% 0.00 in
07:59 31.7 °F 27.1 °F 29.66 in Calm     83% 0.00 in
08:04 32.0 °F 27.7 °F 29.65 in Calm     84% 0.00 in
08:09 32.8 °F 28.8 °F 29.65 in Calm   1.0 mph 85% 0.00 in
08:14 33.6 °F 29.6 °F 29.65 in Calm   1.0 mph 85% 0.00 in
08:19 33.8 °F 29.5 °F 29.65 in Calm   1.0 mph 84% 0.00 in
08:24 33.9 °F 29.3 °F 29.65 in Calm     83% 0.00 in
08:29 33.9 °F 29.3 °F 29.65 in Calm     83% 0.00 in
08:34 33.8 °F 28.9 °F 29.66 in Calm     82% 0.00 in
08:39 33.7 °F 28.8 °F 29.66 in Calm     82% 0.00 in
08:49 34.4 °F 29.8 °F 29.66 in Calm   3.0 mph 83% 0.00 in
08:54 34.9 °F 30.0 °F 29.66 in SSW 2.0 mph 3.0 mph 82% 0.00 in
08:59 35.6 °F 30.0 °F 29.66 in SSW 2.0 mph 3.0 mph 80% 0.00 in
09:04 36.4 °F 30.2 °F 29.66 in SSW 1.0 mph 3.0 mph 78% 0.00 in
09:09 37.3 °F 30.4 °F 29.67 in SSW 2.0 mph 3.0 mph 76% 0.00 in
09:14 37.9 °F 30.4 °F 29.67 in SSW 2.0 mph 4.0 mph 74% 0.00 in
09:19 38.4 °F 30.5 °F 29.66 in SSW 2.0 mph 4.0 mph 73% 0.00 in
09:24 38.7 °F 30.5 °F 29.66 in SSW 3.0 mph 5.0 mph 72% 0.00 in
09:29 39.1 °F 30.1 °F 29.66 in SSW 2.0 mph 7.0 mph 70% 0.00 in
09:34 39.4 °F 30.4 °F 29.66 in SSW 3.0 mph 7.0 mph 70% 0.00 in
09:39 39.5 °F 30.2 °F 29.66 in SW 2.0 mph 6.0 mph 69% 0.00 in
09:44 39.6 °F 30.3 °F 29.65 in SSW 3.0 mph 6.0 mph 69% 0.00 in
09:49 39.7 °F 30.0 °F 29.65 in SSW 4.0 mph 7.0 mph 68% 0.00 in
09:54 39.8 °F 30.1 °F 29.65 in SSW 4.0 mph 7.0 mph 68% 0.00 in
09:59 39.8 °F 30.1 °F 29.65 in SSW 4.0 mph 8.0 mph 68% 0.00 in
10:04 39.7 °F 30.0 °F 29.65 in SSW 4.0 mph 8.0 mph 68% 0.00 in
10:09 39.5 °F 31.2 °F 29.65 in SSW 5.0 mph 8.0 mph 72% 0.00 in
10:14 39.4 °F 29.7 °F 29.65 in SSW 5.0 mph 8.0 mph 68% 0.00 in
10:19 39.3 °F 29.6 °F 29.65 in SSW 3.0 mph 8.0 mph 68% 0.00 in
10:24 39.3 °F 29.6 °F 29.65 in SSW 4.0 mph 10.0 mph 68% 0.00 in
10:29 39.2 °F 29.9 °F 29.64 in SSW 3.0 mph 10.0 mph 69% 0.00 in
10:34 39.3 °F 30.0 °F 29.64 in SSW 3.0 mph 8.0 mph 69% 0.00 in
10:39 39.4 °F 30.1 °F 29.64 in SSW 3.0 mph 8.0 mph 69% 0.00 in
10:44 39.6 °F 30.3 °F 29.64 in SSW 4.0 mph 8.0 mph 69% 0.00 in
10:49 39.8 °F 30.1 °F 29.64 in SSW 3.0 mph 9.0 mph 68% 0.00 in
10:54 40.0 °F 30.3 °F 29.63 in SSW 5.0 mph 9.0 mph 68% 0.00 in
10:59 40.2 °F 30.5 °F 29.63 in SSW 4.0 mph 8.0 mph 68% 0.00 in
11:04 40.1 °F 30.4 °F 29.63 in SSW 4.0 mph 9.0 mph 68% 0.00 in
11:09 39.9 °F 30.2 °F 29.63 in SSW 4.0 mph 9.0 mph 68% 0.00 in
11:14 39.9 °F 30.2 °F 29.62 in SSW 3.0 mph 8.0 mph 68% 0.00 in
11:19 40.0 °F 30.3 °F 29.62 in SSW 2.0 mph 6.0 mph 68% 0.00 in
11:24 40.1 °F 30.4 °F 29.61 in SSW 3.0 mph 7.0 mph 68% 0.00 in
11:29 40.2 °F 30.5 °F 29.61 in SSW 3.0 mph 7.0 mph 68% 0.00 in
11:34 40.2 °F 30.5 °F 29.61 in SSW 4.0 mph 9.0 mph 68% 0.00 in
11:39 40.2 °F 30.5 °F 29.61 in SSW 4.0 mph 9.0 mph 68% 0.00 in
11:44 39.9 °F 30.9 °F 29.61 in SSW 3.0 mph 7.0 mph 70% 0.00 in
11:49 39.5 °F 31.2 °F 29.61 in SW 3.0 mph 7.0 mph 72% 0.00 in
11:54 39.1 °F 31.5 °F 29.62 in SSW 3.0 mph 7.0 mph 74% 0.00 in
11:59 38.7 °F 31.8 °F 29.62 in SSW 2.0 mph 6.0 mph 76% 0.00 in
12:04 38.6 °F 32.0 °F 29.61 in Calm   6.0 mph 77% 0.00 in
12:09 38.5 °F 32.2 °F 29.61 in SSW 1.0 mph 3.0 mph 78% 0.00 in
12:14 38.4 °F 32.5 °F 29.61 in Calm   3.0 mph 79% 0.00 in
12:19 38.4 °F 32.5 °F 29.61 in SSW 1.0 mph 3.0 mph 79% 0.00 in
12:24 38.3 °F 33.0 °F 29.61 in Calm   3.0 mph 81% 0.00 in
12:34 37.9 °F 32.9 °F 29.61 in Calm   3.0 mph 82% 0.00 in
12:39 37.8 °F 32.8 °F 29.61 in SSW 1.0 mph 3.0 mph 82% 0.00 in
12:44 37.7 °F 33.0 °F 29.61 in SSW 1.0 mph 3.0 mph 83% 0.00 in
12:49 37.7 °F 33.0 °F 29.61 in SSW 2.0 mph 5.0 mph 83% 0.00 in
12:54 37.5 °F 33.1 °F 29.61 in SSW 3.0 mph 6.0 mph 84% 0.00 in
12:59 37.4 °F 32.7 °F 29.61 in SSW 4.0 mph 8.0 mph 83% 0.00 in
13:04 37.3 °F 32.6 °F 29.61 in SSW 3.0 mph 8.0 mph 83% 0.00 in
13:09 37.1 °F 32.7 °F 29.61 in SSW 4.0 mph 8.0 mph 84% 0.00 in
13:14 37.0 °F 32.6 °F 29.61 in SW 3.0 mph 7.0 mph 84% 0.00 in
13:19 36.9 °F 32.5 °F 29.61 in SSW 3.0 mph 6.0 mph 84% 0.00 in
13:24 36.8 °F 32.4 °F 29.61 in SW 4.0 mph 7.0 mph 84% 0.00 in
13:29 36.8 °F 32.4 °F 29.61 in SSW 3.0 mph 7.0 mph 84% 0.00 in
13:34 36.8 °F 32.4 °F 29.61 in SSW 4.0 mph 6.0 mph 84% 0.00 in
13:39 36.8 °F 32.1 °F 29.62 in SW 4.0 mph 8.0 mph 83% 0.00 in
13:44 36.9 °F 32.2 °F 29.62 in SW 4.0 mph 8.0 mph 83% 0.00 in
13:49 36.9 °F 31.9 °F 29.62 in SSW 5.0 mph 7.0 mph 82% 0.00 in
13:54 36.9 °F 31.9 °F 29.62 in SW 3.0 mph 8.0 mph 82% 0.00 in
13:59 36.9 °F 31.9 °F 29.62 in SW 4.0 mph 8.0 mph 82% 0.00 in
14:04 37.0 °F 31.7 °F 29.62 in SSW 5.0 mph 9.0 mph 81% 0.00 in
14:09 37.0 °F 31.7 °F 29.62 in SSW 5.0 mph 9.0 mph 81% 0.00 in
14:14 36.9 °F 31.6 °F 29.62 in SW 5.0 mph 9.0 mph 81% 0.00 in
14:19 36.9 °F 31.6 °F 29.62 in SW 5.0 mph 9.0 mph 81% 0.00 in
14:24 36.9 °F 31.6 °F 29.63 in SW 5.0 mph 8.0 mph 81% 0.00 in
14:29 36.9 °F 31.6 °F 29.63 in SSW 4.0 mph 7.0 mph 81% 0.00 in
14:34 36.9 °F 31.6 °F 29.63 in SSW 4.0 mph 8.0 mph 81% 0.00 in
14:39 37.0 °F 31.7 °F 29.63 in SSW 5.0 mph 8.0 mph 81% 0.00 in
14:44 37.1 °F 31.8 °F 29.63 in SSW 5.0 mph 8.0 mph 81% 0.00 in
14:49 37.3 °F 31.7 °F 29.63 in SSW 6.0 mph 8.0 mph 80% 0.00 in
14:54 37.4 °F 31.8 °F 29.63 in SSW 5.0 mph 8.0 mph 80% 0.00 in
14:59 37.5 °F 31.6 °F 29.64 in SSW 6.0 mph 8.0 mph 79% 0.00 in
15:04 37.5 °F 31.6 °F 29.64 in SSW 5.0 mph 8.0 mph 79% 0.00 in
15:09 37.5 °F 31.9 °F 29.64 in SSW 3.0 mph 7.0 mph 80% 0.00 in
15:14 37.5 °F 31.9 °F 29.64 in SSW 3.0 mph 7.0 mph 80% 0.00 in
15:19 37.9 °F 32.0 °F 29.64 in SSW 3.0 mph 7.0 mph 79% 0.00 in
15:24 38.1 °F 31.9 °F 29.64 in SW 3.0 mph 6.0 mph 78% 0.00 in
15:29 38.3 °F 32.0 °F 29.64 in SW 4.0 mph 7.0 mph 78% 0.00 in
15:34 38.6 °F 32.0 °F 29.64 in SSW 4.0 mph 7.0 mph 77% 0.00 in
15:39 38.6 °F 32.0 °F 29.65 in SW 3.0 mph 7.0 mph 77% 0.00 in
15:44 38.7 °F 32.1 °F 29.65 in Calm   5.0 mph 77% 0.00 in
15:49 38.6 °F 32.0 °F 29.64 in Calm   3.0 mph 77% 0.00 in
15:54 38.6 °F 32.0 °F 29.64 in Calm   2.0 mph 77% 0.00 in
15:59 38.4 °F 31.8 °F 29.64 in Calm   2.0 mph 77% 0.00 in
16:04 37.8 °F 31.2 °F 29.65 in Calm   1.0 mph 77% 0.00 in
16:09 36.9 °F 30.7 °F 29.65 in Calm   1.0 mph 78% 0.00 in
16:14 36.0 °F 30.4 °F 29.65 in Calm     80% 0.00 in
16:19 35.6 °F 30.4 °F 29.65 in Calm     81% 0.00 in
16:24 35.3 °F 30.4 °F 29.66 in Calm     82% 0.00 in
16:29 35.1 °F 30.2 °F 29.66 in Calm     82% 0.00 in
16:34 34.9 °F 30.3 °F 29.67 in Calm     83% 0.00 in
16:39 34.7 °F 30.1 °F 29.67 in Calm     83% 0.00 in
16:44 34.8 °F 30.5 °F 29.67 in Calm     84% 0.00 in
16:49 34.8 °F 30.5 °F 29.68 in Calm     84% 0.00 in
16:54 34.7 °F 30.7 °F 29.68 in Calm   1.0 mph 85% 0.00 in
16:59 34.7 °F 30.7 °F 29.68 in SSW 1.0 mph 2.0 mph 85% 0.00 in
17:04 34.8 °F 30.8 °F 29.68 in Calm   2.0 mph 85% 0.00 in
17:09 34.8 °F 31.0 °F 29.69 in SSW 1.0 mph 2.0 mph 86% 0.00 in
17:14 34.5 °F 30.7 °F 29.69 in NW 3.0 mph 9.0 mph 86% 0.00 in
17:19 33.7 °F 29.7 °F 29.70 in NW 2.0 mph 9.0 mph 85% 0.00 in
17:24 33.2 °F 29.2 °F 29.70 in NNW 1.0 mph 8.0 mph 85% 0.00 in
17:29 32.9 °F 29.2 °F 29.71 in Calm   4.0 mph 86% 0.00 in
17:34 32.9 °F 29.5 °F 29.71 in Calm   3.0 mph 87% 0.00 in
17:39 33.3 °F 30.1 °F 29.73 in NW 7.0 mph 10.0 mph 88% 0.00 in
17:44 33.4 °F 30.2 °F 29.73 in NW 5.0 mph 10.0 mph 88% 0.00 in
17:49 33.2 °F 30.0 °F 29.73 in NNW 2.0 mph 9.0 mph 88% 0.00 in
17:54 33.0 °F 29.8 °F 29.73 in NNW 2.0 mph 5.0 mph 88% 0.00 in
17:59 32.9 °F 29.7 °F 29.73 in Calm   5.0 mph 88% 0.00 in
18:04 32.9 °F 30.0 °F 29.72 in NNW 1.0 mph 4.0 mph 89% 0.00 in
18:09 32.9 °F 30.0 °F 29.73 in Calm   4.0 mph 89% 0.00 in
18:14 32.9 °F 30.0 °F 29.73 in NNE 1.0 mph 4.0 mph 89% 0.00 in
18:19 33.0 °F 30.1 °F 29.74 in NNE 1.0 mph 3.0 mph 89% 0.00 in
18:24 32.9 °F 30.3 °F 29.75 in NNE 1.0 mph 3.0 mph 90% 0.00 in
18:30 33.0 °F 30.4 °F 29.74 in Calm   3.0 mph 90% 0.00 in
18:39 33.0 °F 30.4 °F 29.75 in Calm   1.0 mph 90% 0.00 in
18:44 32.9 °F 30.3 °F 29.75 in Calm   2.0 mph 90% 0.00 in
18:49 32.9 °F 30.3 °F 29.75 in Calm   2.0 mph 90% 0.00 in
18:54 32.9 °F 30.3 °F 29.76 in Calm     90% 0.00 in
18:59 33.0 °F 30.4 °F 29.76 in Calm     90% 0.00 in
19:04 32.9 °F 30.3 °F 29.76 in Calm     90% 0.00 in
19:09 32.9 °F 30.6 °F 29.76 in Calm     91% 0.00 in
19:14 32.9 °F 30.6 °F 29.77 in Calm     91% 0.00 in
19:19 32.8 °F 30.5 °F 29.76 in Calm     91% 0.00 in
19:24 32.9 °F 30.6 °F 29.77 in Calm     91% 0.00 in
19:29 32.9 °F 30.6 °F 29.77 in Calm   1.0 mph 91% 0.00 in
19:34 33.0 °F 30.7 °F 29.76 in Calm   1.0 mph 91% 0.00 in
19:39 33.0 °F 30.7 °F 29.77 in Calm     91% 0.00 in
19:49 33.0 °F 30.7 °F 29.78 in North 2.0 mph 4.0 mph 91% 0.00 in
19:54 33.3 °F 31.2 °F 29.79 in WNW 3.0 mph 9.0 mph 92% 0.00 in
19:59 33.4 °F 31.3 °F 29.78 in NW 3.0 mph 9.0 mph 92% 0.00 in
20:04 33.4 °F 31.3 °F 29.78 in WNW 2.0 mph 6.0 mph 92% 0.00 in
20:09 33.4 °F 31.3 °F 29.79 in WNW 2.0 mph 5.0 mph 92% 0.00 in
20:14 33.4 °F 31.3 °F 29.78 in Calm   4.0 mph 92% 0.00 in
20:19 33.4 °F 31.3 °F 29.77 in Calm   2.0 mph 92% 0.00 in
20:24 33.2 °F 31.1 °F 29.78 in WNW 2.0 mph 3.0 mph 92% 0.00 in
20:30 33.2 °F 31.1 °F 29.78 in WNW 1.0 mph 3.0 mph 92% 0.00 in
20:39 33.2 °F 31.1 °F 29.78 in WNW 1.0 mph 3.0 mph 92% 0.00 in
20:44 33.3 °F 31.2 °F 29.79 in WNW 2.0 mph 3.0 mph 92% 0.00 in
20:49 33.5 °F 31.4 °F 29.79 in WNW 2.0 mph 4.0 mph 92% 0.00 in
20:54 33.9 °F 32.1 °F 29.80 in WSW 4.0 mph 7.0 mph 93% 0.00 in
20:59 34.2 °F 32.4 °F 29.80 in West 5.0 mph 8.0 mph 93% 0.00 in
21:04 34.4 °F 32.6 °F 29.80 in WSW 4.0 mph 8.0 mph 93% 0.00 in
21:09 34.4 °F 32.6 °F 29.79 in WSW 2.0 mph 8.0 mph 93% 0.00 in
21:14 34.4 °F 32.6 °F 29.80 in SW 5.0 mph 8.0 mph 93% 0.00 in
21:19 34.2 °F 32.1 °F 29.80 in WSW 4.0 mph 8.0 mph 92% 0.00 in
21:24 34.1 °F 32.0 °F 29.80 in WSW 3.0 mph 8.0 mph 92% 0.00 in
21:29 34.2 °F 32.1 °F 29.80 in WSW 4.0 mph 7.0 mph 92% 0.00 in
21:34 34.2 °F 32.1 °F 29.81 in SW 3.0 mph 7.0 mph 92% 0.00 in
21:39 34.2 °F 32.1 °F 29.81 in SW 3.0 mph 7.0 mph 92% 0.00 in
21:44 34.1 °F 32.0 °F 29.81 in SW 5.0 mph 10.0 mph 92% 0.00 in
21:49 33.5 °F 31.4 °F 29.81 in SSW 6.0 mph 10.0 mph 92% 0.00 in
21:54 33.3 °F 31.2 °F 29.81 in SSW 5.0 mph 8.0 mph 92% 0.00 in
21:59 33.2 °F 31.1 °F 29.82 in SW 3.0 mph 8.0 mph 92% 0.00 in
22:04 33.4 °F 31.3 °F 29.82 in SW 1.0 mph 11.0 mph 92% 0.00 in
22:09 33.6 °F 31.5 °F 29.82 in West 4.0 mph 11.0 mph 92% 0.00 in
22:14 33.8 °F 31.7 °F 29.82 in Calm   10.0 mph 92% 0.00 in
22:19 34.1 °F 32.0 °F 29.82 in SW 4.0 mph 7.0 mph 92% 0.00 in
22:24 34.4 °F 32.3 °F 29.83 in WSW 4.0 mph 9.0 mph 92% 0.00 in
22:29 34.4 °F 32.0 °F 29.82 in WSW 3.0 mph 9.0 mph 91% 0.00 in
22:34 34.4 °F 31.8 °F 29.82 in West 6.0 mph 12.0 mph 90% 0.00 in
22:39 35.0 °F 31.8 °F 29.83 in West 4.0 mph 12.0 mph 88% 0.00 in
22:44 35.2 °F 31.7 °F 29.83 in WSW 4.0 mph 12.0 mph 87% 0.00 in
22:49 35.3 °F 31.2 °F 29.83 in West 7.0 mph 17.0 mph 85% 0.00 in
22:54 35.5 °F 30.9 °F 29.83 in WSW 8.0 mph 17.0 mph 83% 0.00 in
22:59 35.6 °F 30.7 °F 29.83 in West 6.0 mph 15.0 mph 82% 0.00 in
23:04 35.5 °F 30.6 °F 29.84 in West 6.0 mph 16.0 mph 82% 0.00 in
23:09 35.5 °F 30.3 °F 29.84 in WSW 7.0 mph 16.0 mph 81% 0.00 in
23:14 35.4 °F 29.8 °F 29.84 in West 6.0 mph 14.0 mph 80% 0.00 in
23:19 35.2 °F 29.3 °F 29.84 in WSW 7.0 mph 17.0 mph 79% 0.00 in
23:24 34.9 °F 29.4 °F 29.84 in West 6.0 mph 17.0 mph 80% 0.00 in
23:29 34.5 °F 29.0 °F 29.84 in West 4.0 mph 10.0 mph 80% 0.00 in
23:34 34.4 °F 28.9 °F 29.84 in WSW 6.0 mph 13.0 mph 80% 0.00 in
23:39 34.4 °F 28.9 °F 29.85 in WNW 4.0 mph 13.0 mph 80% 0.00 in
23:44 34.2 °F 28.4 °F 29.85 in West 6.0 mph 13.0 mph 79% 0.00 in
23:49 34.2 °F 28.4 °F 29.85 in WSW 6.0 mph 13.0 mph 79% 0.00 in
23:54 34.2 °F 28.4 °F 29.85 in West 7.0 mph 14.0 mph 79% 0.00 in
23:59 34.2 °F 28.1 °F 29.85 in West 7.0 mph 14.0 mph 78% 0.00 in
Westford Weather
Compliments of Weather Underground

 
 
Current Radar Loop:

Copyright © WestfordWeather.net 2007-2014. All rights reserved.